Time;durP1;ratioP1;P1;durP2;ratioP2;P2;SDS_P1;SDS_P2;PMS_P1;PMS_P2;Temp;Humidity;BMP_temperature;BMP_pressure;BME280_temperature;BME280_humidity;BME280_pressure;Samples;Min_cycle;Max_cycle;Signal;HPM_P1;HPM_P2
2022/06/01 00:01:08;;;;;;;3.47;2.65;;;;;;;21.53;57.92;100060.06;1761618;78;21557;-66
2022/06/01 00:03:38;;;;;;;3.42;2.50;;;;;;;21.55;57.90;100057.13;1794012;79;20979;-65
2022/06/01 00:06:05;;;;;;;2.62;2.42;;;;;;;21.52;57.86;100054.37;1771521;78;21246;-64
2022/06/01 00:08:32;;;;;;;3.05;2.40;;;;;;;21.53;57.85;100056.54;1802947;78;21001;-65
2022/06/01 00:10:59;;;;;;;4.90;2.87;;;;;;;21.52;57.73;100061.13;1796189;78;21493;-64
2022/06/01 00:13:26;;;;;;;2.90;2.55;;;;;;;21.53;57.75;100049.78;1805600;78;21013;-66
2022/06/01 00:15:52;;;;;;;3.30;2.60;;;;;;;21.53;57.71;100051.13;1804601;78;21048;-65
2022/06/01 00:18:19;;;;;;;2.60;2.40;;;;;;;21.53;57.75;100050.59;1773175;79;21137;-65
2022/06/01 00:20:47;;;;;;;2.67;2.33;;;;;;;21.53;57.72;100044.37;1787181;78;21055;-65
2022/06/01 00:23:13;;;;;;;2.60;2.40;;;;;;;21.53;57.71;100049.78;1793910;78;21095;-64
2022/06/01 00:25:41;;;;;;;2.75;2.55;;;;;;;21.53;57.70;100050.59;1802973;78;21085;-64
2022/06/01 00:28:09;;;;;;;2.50;2.30;;;;;;;21.53;57.60;100048.43;1781479;80;21095;-65
2022/06/01 00:30:35;;;;;;;2.98;2.67;;;;;;;21.52;57.52;100049.50;1768949;79;21858;-64
2022/06/01 00:33:03;;;;;;;3.10;2.80;;;;;;;21.51;57.51;100050.55;1768052;79;21076;-65
2022/06/01 00:35:31;;;;;;;3.35;2.60;;;;;;;21.51;57.47;100050.55;1783855;78;21076;-64
2022/06/01 00:37:57;;;;;;;4.87;2.67;;;;;;;21.49;57.38;100049.95;1788802;78;20993;-64
2022/06/01 00:40:26;;;;;;;3.15;2.47;;;;;;;21.49;57.37;100049.95;1794237;78;20977;-65
2022/06/01 00:42:57;;;;;;;2.90;2.60;;;;;;;21.48;57.35;100053.70;1797424;78;21877;-64
2022/06/01 00:45:24;;;;;;;2.85;2.52;;;;;;;21.47;57.31;100045.31;1808434;78;21540;-64
2022/06/01 00:47:51;;;;;;;2.80;2.47;;;;;;;21.46;57.36;100051.76;1801889;78;21698;-65
2022/06/01 00:50:24;;;;;;;2.90;2.70;;;;;;;21.44;57.39;100052.02;1797227;78;21005;-64
2022/06/01 00:53:05;;;;;;;2.45;2.17;;;;;;;21.45;57.28;100059.59;1755575;80;21024;-65
2022/06/01 00:55:47;;;;;;;;;;;;;;;21.44;57.26;100058.77;1757067;80;21208;-65
2022/06/01 00:58:21;;;;;;;2.55;2.35;;;;;;;21.44;57.22;100059.27;1763794;79;20540;-66
2022/06/01 01:00:50;;;;;;;2.45;2.25;;;;;;;21.41;57.22;100063.25;1794191;78;21037;-64
2022/06/01 01:03:17;;;;;;;2.60;2.40;;;;;;;21.39;57.28;100062.12;1787172;78;21050;-64
2022/06/01 01:05:51;;;;;;;2.50;2.30;;;;;;;21.38;57.22;100061.84;1800173;78;21063;-65
2022/06/01 01:08:18;;;;;;;3.42;2.00;;;;;;;21.39;57.28;100064.00;1801517;79;21269;-64
2022/06/01 01:10:44;;;;;;;2.50;2.30;;;;;;;21.37;57.30;100056.12;1788291;78;21099;-64
2022/06/01 01:13:14;;;;;;;2.52;2.33;;;;;;;21.37;57.23;100058.83;1767697;79;21593;-65
2022/06/01 01:15:52;;;;;;;2.83;2.60;;;;;;;21.38;57.15;100058.30;1784407;78;21085;-65
2022/06/01 01:18:17;;;;;;;3.08;2.77;;;;;;;21.37;57.09;100058.83;1732543;80;21084;-65
2022/06/01 01:21:31;;;;;;;2.60;2.40;;;;;;;21.36;56.98;100062.60;1745057;80;21214;-65
2022/06/01 01:24:22;;;;;;;2.43;2.30;;;;;;;21.36;56.84;100063.95;1757421;79;21044;-64
2022/06/01 01:26:51;;;;;;;2.50;2.30;;;;;;;21.35;56.87;100061.47;1752534;80;22002;-65
2022/06/01 01:29:42;;;;;;;3.22;2.27;;;;;;;21.34;56.80;100055.25;1770046;80;21104;-66
2022/06/01 01:32:11;;;;;;;9.85;2.35;;;;;;;21.33;56.87;100055.48;1777987;80;21100;-66
2022/06/01 01:34:38;;;;;;;2.58;2.37;;;;;;;21.32;56.87;100053.81;1770552;79;21540;-66
2022/06/01 01:37:08;;;;;;;2.37;2.17;;;;;;;21.32;56.91;100067.33;1761922;81;21015;-66
2022/06/01 01:39:36;;;;;;;2.58;2.37;;;;;;;21.31;56.92;100061.64;1759340;79;21001;-64
2022/06/01 01:42:07;;;;;;;2.60;2.10;;;;;;;21.31;56.97;100063.00;1760200;80;21072;-64
2022/06/01 01:44:49;;;;;;;2.45;2.22;;;;;;;21.31;57.02;100065.16;1758128;79;21582;-66
2022/06/01 01:47:17;;;;;;;2.67;2.47;;;;;;;21.30;56.93;100067.55;1771865;80;21113;-65
2022/06/01 01:49:43;;;;;;;2.50;2.30;;;;;;;21.30;56.92;100066.73;1767998;79;21044;-63
2022/06/01 01:52:14;;;;;;;2.30;2.15;;;;;;;21.28;56.90;100065.61;1771355;79;21032;-64
2022/06/01 01:55:06;;;;;;;2.40;2.12;;;;;;;21.29;56.90;100066.45;1772957;79;21533;-64
2022/06/01 01:58:16;;;;;;;2.47;2.15;;;;;;;21.28;56.85;100062.91;1770093;79;21556;-64
2022/06/01 02:00:51;;;;;;;2.30;2.08;;;;;;;21.27;56.76;100063.98;1766783;79;21143;-63
2022/06/01 02:03:53;;;;;;;2.60;2.40;;;;;;;21.27;56.74;100063.16;1773464;79;21085;-64
2022/06/01 02:06:41;;;;;;;3.85;2.50;;;;;;;21.24;56.72;100060.91;1771458;79;21160;-64
2022/06/01 02:09:10;;;;;;;2.52;2.10;;;;;;;21.23;56.75;100054.69;1772503;79;21105;-64
2022/06/01 02:14:46;;;;;;;2.67;2.42;;;;;;;21.21;56.64;100052.21;1770410;80;21094;-66
2022/06/01 02:17:17;;;;;;;2.50;2.30;;;;;;;21.19;56.58;100048.92;1772151;79;21088;-64
2022/06/01 02:19:52;;;;;;;2.55;2.35;;;;;;;21.19;56.57;100045.41;1751808;79;21081;-65
2022/06/01 02:22:18;;;;;;;2.17;1.98;;;;;;;21.18;56.63;100046.44;1769905;79;21002;-65
2022/06/01 02:24:45;;;;;;;2.95;2.33;;;;;;;21.18;56.65;100053.20;1759844;79;21493;-65
2022/06/01 02:27:12;;;;;;;3.42;2.27;;;;;;;21.18;56.62;100055.90;1766288;79;21064;-64
2022/06/01 02:30:00;;;;;;;2.55;2.35;;;;;;;21.17;56.53;100053.73;1768177;80;21620;-63
2022/06/01 02:32:28;;;;;;;2.83;2.40;;;;;;;21.17;56.54;100060.48;1767722;79;21064;-64
2022/06/01 02:34:55;;;;;;;2.60;2.40;;;;;;;21.17;56.43;100052.38;1729029;79;21127;-65
2022/06/01 02:37:21;;;;;;;3.62;2.55;;;;;;;21.18;56.37;100050.50;1764595;80;21132;-65
2022/06/01 02:39:52;;;;;;;2.67;2.47;;;;;;;21.17;56.27;100048.33;1762420;79;21072;-63
2022/06/01 02:42:28;;;;;;;2.62;2.35;;;;;;;21.19;56.20;100054.86;1763282;80;21029;-64
2022/06/01 02:44:59;;;;;;;2.52;2.33;;;;;;;21.18;56.22;100055.90;1771106;79;21092;-64
2022/06/01 02:47:30;;;;;;;2.70;2.45;;;;;;;21.19;56.25;100056.21;1760226;79;21084;-65
2022/06/01 02:49:57;;;;;;;3.25;2.77;;;;;;;21.18;56.13;100051.84;1748799;79;21682;-64
2022/06/01 02:52:24;;;;;;;2.90;2.70;;;;;;;21.18;56.09;100055.90;1751180;79;21161;-64
2022/06/01 02:54:50;;;;;;;2.45;2.30;;;;;;;21.16;56.13;100053.95;1755740;79;21033;-64
2022/06/01 02:57:16;;;;;;;5.12;2.47;;;;;;;21.18;56.15;100055.36;1759039;79;21022;-65
2022/06/01 02:59:43;;;;;;;2.83;2.40;;;;;;;21.17;56.08;100053.73;1759655;80;22074;-65
2022/06/01 03:02:09;;;;;;;2.80;2.60;;;;;;;21.18;55.98;100049.14;1738715;81;21582;-65
2022/06/01 03:04:38;;;;;;;4.25;2.75;;;;;;;21.18;55.98;100051.31;1800456;78;21181;-65
2022/06/01 03:07:05;;;;;;;2.30;2.10;;;;;;;21.19;55.93;100050.80;1768247;80;21513;-64
2022/06/01 03:09:33;;;;;;;3.27;2.30;;;;;;;21.19;55.88;100049.45;1761363;79;21076;-64
2022/06/01 03:12:00;;;;;;;2.40;2.20;;;;;;;21.19;55.82;100052.16;1772818;79;21160;-64
2022/06/01 03:14:27;;;;;;;2.30;2.10;;;;;;;21.20;55.76;100056.48;1800553;78;21632;-66
2022/06/01 03:16:55;;;;;;;2.60;2.40;;;;;;;21.20;55.80;100059.19;1798059;78;21132;-66
2022/06/01 03:19:22;;;;;;;2.33;2.12;;;;;;;21.20;55.77;100053.79;1802743;78;21531;-66
2022/06/01 03:21:48;;;;;;;2.22;2.02;;;;;;;21.21;55.69;100055.45;1798413;78;21010;-65
2022/06/01 03:24:14;;;;;;;3.30;2.42;;;;;;;21.21;55.63;100058.16;1769407;79;21091;-64
2022/06/01 03:26:42;;;;;;;3.15;2.20;;;;;;;21.22;55.55;100059.78;1763589;79;21193;-64
2022/06/01 03:29:08;;;;;;;4.35;3.00;;;;;;;21.23;55.53;100055.20;1790206;79;21138;-63
2022/06/01 03:31:35;;;;;;;2.75;2.55;;;;;;;21.24;55.48;100052.27;1793203;78;20994;-65
2022/06/01 03:34:02;;;;;;;2.55;2.35;;;;;;;21.24;55.43;100052.27;1792317;78;21029;-64
2022/06/01 03:36:29;;;;;;;3.37;2.60;;;;;;;21.24;55.41;100054.97;1799800;78;21027;-65
2022/06/01 03:38:58;;;;;;;2.33;2.17;;;;;;;21.26;55.41;100052.86;1823974;78;21085;-65
2022/06/01 03:41:27;;;;;;;4.62;2.65;;;;;;;21.27;55.35;100046.95;1785622;78;21498;-64
2022/06/01 03:46:40;;;;;;;2.80;2.58;;;;;;;21.29;55.26;100048.89;1793613;78;21094;-67
2022/06/01 03:49:06;;;;;;;4.22;3.83;;;;;;;21.29;55.19;100046.19;1801671;78;21439;-65
2022/06/01 03:51:32;;;;;;;3.33;3.02;;;;;;;21.29;55.16;100044.30;1768525;78;20993;-64
2022/06/01 03:54:00;;;;;;;2.92;2.62;;;;;;;21.29;55.13;100042.95;1756630;79;21230;-65
2022/06/01 03:56:27;;;;;;;3.17;2.72;;;;;;;21.31;55.15;100044.89;1758509;79;21084;-65
2022/06/01 03:58:54;;;;;;;2.98;2.77;;;;;;;21.31;55.13;100039.49;1771471;78;21028;-66
2022/06/01 04:01:20;;;;;;;4.17;3.20;;;;;;;21.32;55.03;100038.95;1791232;78;21091;-65
2022/06/01 04:03:47;;;;;;;3.33;2.60;;;;;;;21.32;55.03;100034.37;1778910;78;21565;-64
2022/06/01 04:06:14;;;;;;;3.20;2.90;;;;;;;21.33;55.00;100035.22;1778320;79;21148;-66
2022/06/01 04:08:41;;;;;;;4.05;2.95;;;;;;;21.34;55.00;100037.69;1776386;79;21560;-66
2022/06/01 04:11:09;;;;;;;4.20;3.27;;;;;;;21.34;55.01;100043.09;1768201;79;21055;-65
2022/06/01 04:13:37;;;;;;;3.55;3.25;;;;;;;21.35;55.00;100037.16;1774863;79;21124;-64
2022/06/01 04:16:04;;;;;;;4.15;2.98;;;;;;;21.36;55.05;100034.73;1798336;78;22249;-65
2022/06/01 04:18:32;;;;;;;4.15;3.02;;;;;;;21.37;55.05;100032.34;1756826;79;21176;-65
2022/06/01 04:20:58;;;;;;;3.02;2.80;;;;;;;21.38;54.87;100036.67;1773401;79;20992;-65
2022/06/01 04:23:24;;;;;;;7.70;2.90;;;;;;;21.39;54.98;100039.69;1768273;79;21020;-65
2022/06/01 04:25:51;;;;;;;4.10;3.37;;;;;;;21.40;55.05;100039.46;1777793;79;21506;-65
2022/06/01 04:28:17;;;;;;;3.42;2.95;;;;;;;21.43;54.98;100034.64;1782532;79;21076;-65
2022/06/01 04:30:45;;;;;;;4.67;2.92;;;;;;;21.45;54.89;100039.32;1789924;79;21215;-64
2022/06/01 04:33:11;;;;;;;3.55;2.65;;;;;;;21.47;54.86;100034.50;1788780;79;21040;-64
2022/06/01 04:35:41;;;;;;;3.40;3.12;;;;;;;21.49;54.78;100035.91;1781321;78;21518;-64
2022/06/01 04:38:14;;;;;;;3.08;2.83;;;;;;;21.50;54.73;100034.02;1763704;78;21069;-65
2022/06/01 04:40:49;;;;;;;3.90;2.87;;;;;;;21.52;54.60;100023.83;1796086;78;21015;-64
2022/06/01 04:43:19;;;;;;;3.67;2.80;;;;;;;21.52;54.66;100030.05;1799823;78;21137;-65
2022/06/01 04:45:46;;;;;;;4.35;2.60;;;;;;;21.56;54.71;100030.41;1797432;78;21139;-65
2022/06/01 04:48:12;;;;;;;3.27;2.80;;;;;;;21.57;54.79;100027.98;1793614;78;21065;-66
2022/06/01 04:50:42;;;;;;;5.10;3.27;;;;;;;21.58;54.84;100029.64;1804136;78;21072;-65
2022/06/01 04:53:13;;;;;;;3.35;2.85;;;;;;;21.60;54.77;100028.88;1781449;78;21532;-64
2022/06/01 04:55:40;;;;;;;2.52;2.33;;;;;;;21.62;54.71;100030.00;1793986;79;21192;-65
2022/06/01 04:58:07;;;;;;;3.17;2.60;;;;;;;21.62;54.65;100023.25;1765500;79;21048;-64
2022/06/01 05:00:33;;;;;;;3.77;2.90;;;;;;;21.63;54.63;100027.05;1793951;78;21008;-65
2022/06/01 05:03:01;;;;;;;3.00;2.80;;;;;;;21.63;54.58;100022.17;1795511;78;21366;-64
2022/06/01 05:05:28;;;;;;;2.80;2.50;;;;;;;21.64;54.51;100025.19;1775493;78;22491;-63
2022/06/01 05:07:54;;;;;;;2.83;2.58;;;;;;;21.65;54.44;100029.52;1800944;78;21207;-65
2022/06/01 05:10:22;;;;;;;3.35;2.60;;;;;;;21.64;54.45;100029.23;1813298;78;21069;-65
2022/06/01 05:15:17;;;;;;;4.10;2.87;;;;;;;21.70;54.52;100022.89;1862226;76;22378;-64
2022/06/01 05:17:43;;;;;;;3.10;2.52;;;;;;;21.67;54.55;100025.55;1856055;77;20994;-65
2022/06/01 05:20:11;;;;;;;3.20;2.90;;;;;;;21.68;54.56;100023.66;1860037;77;21953;-65
2022/06/01 05:22:38;;;;;;;3.47;3.17;;;;;;;21.69;54.58;100024.78;1856244;77;20949;-64
2022/06/01 05:25:06;;;;;;;4.33;2.65;;;;;;;21.70;54.64;100025.05;1839888;77;21076;-65
2022/06/01 05:27:32;;;;;;;2.92;2.72;;;;;;;21.72;54.63;100023.48;1843255;76;20961;-66
2022/06/01 05:29:59;;;;;;;2.83;2.62;;;;;;;21.72;54.47;100017.53;1853633;77;20988;-65
2022/06/01 05:32:26;;;;;;;4.12;2.83;;;;;;;21.72;54.44;100014.83;1856000;77;21573;-65
2022/06/01 05:34:53;;;;;;;3.40;3.08;;;;;;;21.75;54.46;100019.78;1830588;77;20983;-66
2022/06/01 05:37:20;;;;;;;3.22;2.65;;;;;;;21.77;54.47;100020.37;1826358;78;21058;-65
2022/06/01 05:39:47;;;;;;;3.67;2.90;;;;;;;21.79;54.40;100020.14;1825793;77;20981;-65
2022/06/01 05:42:13;;;;;;;2.95;2.72;;;;;;;21.80;54.38;100017.17;1828234;77;22078;-65
2022/06/01 05:44:41;;;;;;;4.75;3.00;;;;;;;21.83;54.38;100011.00;1857673;76;21037;-63
2022/06/01 05:47:08;;;;;;;6.95;3.25;;;;;;;21.85;54.33;100015.13;1839704;77;20932;-65
2022/06/01 05:49:35;;;;;;;4.15;3.00;;;;;;;21.87;54.37;100014.37;1859508;77;20975;-65
2022/06/01 05:52:01;;;;;;;5.47;2.50;;;;;;;21.89;54.32;100014.95;1780107;80;21017;-66
2022/06/01 05:54:28;;;;;;;2.80;2.60;;;;;;;21.91;54.39;100012.83;1791713;78;21044;-65
2022/06/01 05:56:54;;;;;;;2.90;2.70;;;;;;;21.94;54.37;100014.23;1797080;78;21056;-65
2022/06/01 05:59:21;;;;;;;4.92;3.15;;;;;;;21.96;54.41;100016.16;1781955;78;21081;-66
2022/06/01 06:01:47;;;;;;;5.72;2.90;;;;;;;21.98;54.42;100012.70;1785608;78;21549;-65
2022/06/01 06:04:14;;;;;;;3.65;3.22;;;;;;;22.00;54.37;100017.37;1781845;80;21108;-65
2022/06/01 06:06:40;;;;;;;3.52;2.70;;;;;;;22.02;54.37;100019.30;1780967;79;21017;-65
2022/06/01 06:09:08;;;;;;;4.00;2.75;;;;;;;22.05;54.35;100018.00;1785005;80;21254;-65
2022/06/01 06:11:38;;;;;;;2.90;2.70;;;;;;;22.07;54.35;100016.69;1777151;79;21120;-65
2022/06/01 06:14:05;;;;;;;4.80;2.92;;;;;;;22.09;54.39;100014.57;1775969;80;21026;-65
2022/06/01 06:16:36;;;;;;;3.60;2.85;;;;;;;22.12;54.43;100014.64;1779216;80;21025;-65
2022/06/01 06:19:03;;;;;;;3.10;2.80;;;;;;;22.13;54.45;100021.69;1781877;79;21025;-64
2022/06/01 06:21:31;;;;;;;3.55;3.22;;;;;;;22.14;54.45;100018.75;1782589;79;21148;-66
2022/06/01 06:24:00;;;;;;;3.85;3.33;;;;;;;22.16;54.49;100014.45;1789903;80;21050;-65
2022/06/01 06:26:27;;;;;;;3.10;2.90;;;;;;;22.18;54.42;100023.97;1780768;80;21052;-65
2022/06/01 06:28:53;;;;;;;4.22;2.80;;;;;;;22.21;54.49;100022.66;1781442;79;21025;-64
2022/06/01 06:31:19;;;;;;;5.95;3.42;;;;;;;22.22;54.53;100011.33;1770789;80;21139;-64
2022/06/01 06:33:46;;;;;;;4.05;3.12;;;;;;;22.25;54.53;100009.52;1786023;80;21130;-65
2022/06/01 06:36:14;;;;;;;3.80;3.50;;;;;;;22.27;54.58;100010.09;1775876;79;21013;-66
2022/06/01 06:38:40;;;;;;;3.40;3.02;;;;;;;22.29;54.54;100007.97;1765097;80;20997;-66
2022/06/01 06:41:07;;;;;;;7.60;2.92;;;;;;;22.31;54.76;100004.50;1776571;79;20986;-64
2022/06/01 06:43:35;;;;;;;6.90;3.35;;;;;;;22.33;54.94;100002.41;1788916;80;21374;-65
2022/06/01 06:46:08;;;;;;;5.42;3.50;;;;;;;22.36;55.40;99997.30;1782328;80;21246;-65
2022/06/01 06:48:34;;;;;;;5.30;4.17;;;;;;;22.41;55.63;100001.17;1783260;80;21083;-65
2022/06/01 06:51:01;;;;;;;4.85;3.22;;;;;;;22.44;55.71;100001.52;1785014;80;21049;-65
2022/06/01 06:53:28;;;;;;;4.67;3.33;;;;;;;22.47;55.80;99997.53;1795555;78;21065;-65
2022/06/01 06:55:55;;;;;;;5.70;3.87;;;;;;;22.50;55.78;99999.23;1775502;79;21045;-64
2022/06/01 06:58:21;;;;;;;5.75;3.62;;;;;;;22.55;55.75;99999.86;1783253;79;21667;-65
2022/06/01 07:00:48;;;;;;;7.47;3.75;;;;;;;22.57;55.81;99997.19;1783083;79;21133;-65
2022/06/01 07:03:15;;;;;;;5.08;3.85;;;;;;;22.62;55.81;99998.34;1777788;80;21062;-68
2022/06/01 07:08:28;;;;;;;5.58;4.12;;;;;;;22.67;55.80;99995.20;1781115;80;21132;-66
2022/06/01 07:10:55;;;;;;;6.00;3.60;;;;;;;22.70;55.78;99995.27;1774102;79;21273;-65
2022/06/01 07:13:22;;;;;;;4.65;3.92;;;;;;;22.74;55.67;99993.72;1758366;80;21052;-66
2022/06/01 07:15:51;;;;;;;5.20;3.60;;;;;;;22.75;55.66;99990.78;1787920;79;21058;-66
2022/06/01 07:18:17;;;;;;;4.83;3.85;;;;;;;22.78;55.63;99986.75;1784911;79;21076;-65
2022/06/01 07:20:44;;;;;;;4.70;3.65;;;;;;;22.80;55.66;99982.45;1791269;80;21484;-65
2022/06/01 07:23:11;;;;;;;5.08;3.83;;;;;;;22.82;55.65;99983.84;1781091;78;21152;-64
2022/06/01 07:25:38;;;;;;;4.28;3.85;;;;;;;22.84;55.63;99978.19;1776894;79;21138;-65
2022/06/01 07:28:04;;;;;;;5.28;3.87;;;;;;;22.86;55.66;99976.88;1803206;79;21017;-65
2022/06/01 07:30:34;;;;;;;4.35;3.87;;;;;;;22.90;55.68;99984.80;1775573;78;21018;-64
2022/06/01 07:33:00;;;;;;;6.20;4.45;;;;;;;22.93;55.80;99979.45;1791495;77;21053;-64
2022/06/01 07:35:27;;;;;;;5.92;3.80;;;;;;;22.95;55.87;99975.42;1782938;80;21739;-65
2022/06/01 07:43:23;;;;;;;4.50;4.10;;;;;;;23.03;56.52;99974.77;1786516;78;21534;-65
2022/06/01 07:45:50;;;;;;;5.15;4.65;;;;;;;23.06;56.57;99979.14;1781689;79;21041;-64
2022/06/01 07:48:18;;;;;;;6.70;4.50;;;;;;;23.08;56.52;99976.19;1785880;80;20998;-65
2022/06/01 07:50:47;;;;;;;6.53;4.65;;;;;;;23.11;56.46;99974.36;1774275;80;20990;-67
2022/06/01 07:53:14;;;;;;;5.25;4.75;;;;;;;23.12;56.43;99975.48;1777518;80;21057;-66
2022/06/01 07:55:41;;;;;;;5.60;3.90;;;;;;;23.15;56.40;99974.16;1792835;80;21057;-65
2022/06/01 07:58:09;;;;;;;4.55;4.15;;;;;;;23.17;56.39;99981.50;1768258;80;21036;-64
2022/06/01 08:00:35;;;;;;;5.40;4.92;;;;;;;23.19;56.38;99971.78;1785759;79;21677;-64
2022/06/01 08:03:02;;;;;;;4.60;4.20;;;;;;;23.22;56.38;99972.63;1808155;77;21068;-64
2022/06/01 08:05:29;;;;;;;5.53;5.03;;;;;;;23.24;56.34;99965.91;1782557;80;21530;-65
2022/06/01 08:07:55;;;;;;;5.08;4.67;;;;;;;23.26;56.39;99971.91;1786999;78;21041;-64
2022/06/01 08:10:22;;;;;;;7.33;4.50;;;;;;;23.28;56.40;99962.98;1793152;80;20982;-65
2022/06/01 08:13:09;;;;;;;4.95;4.42;;;;;;;23.31;56.45;99964.38;1788402;79;21030;-65
2022/06/01 08:15:41;;;;;;;5.25;4.75;;;;;;;23.32;56.57;99965.48;1774655;80;21085;-73
2022/06/01 08:18:08;;;;;;;4.83;4.42;;;;;;;23.34;56.77;99964.70;1781883;78;21060;-66
2022/06/01 08:20:35;;;;;;;6.30;4.95;;;;;;;;;;1782581;79;21024;-67
2022/06/01 08:23:01;;;;;;;7.97;4.35;;;;;;;23.41;57.02;99962.36;1754498;77;21007;-67
2022/06/01 08:25:29;;;;;;;8.45;5.78;;;;;;;23.45;57.20;99960.79;1689289;83;21267;-67
2022/06/01 08:27:56;;;;;;;8.20;5.15;;;;;;;23.48;57.28;99961.66;1686540;83;21073;-69
2022/06/01 08:30:24;;;;;;;6.90;5.62;;;;;;;23.52;57.38;99958.73;1689662;83;21040;-69
2022/06/01 08:32:51;;;;;;;6.33;5.58;;;;;;;23.53;57.62;99958.50;1692209;83;21533;-67
2022/06/01 08:35:20;;;;;;;5.60;5.10;;;;;;;23.58;57.70;99957.73;1696786;82;21242;-68
2022/06/01 08:37:47;;;;;;;5.65;5.22;;;;;;;23.61;57.88;99964.03;1692911;83;21217;-67
2022/06/01 08:40:16;;;;;;;6.42;5.87;;;;;;;23.63;57.95;99970.03;1700580;83;21036;-66
2022/06/01 08:42:57;;;;;;;6.87;6.03;;;;;;;23.67;57.99;99963.03;1704004;83;21065;-68
2022/06/01 08:45:24;;;;;;;7.10;5.60;;;;;;;23.69;57.89;99967.67;1666318;84;21081;-68
2022/06/01 08:47:51;;;;;;;6.60;5.92;;;;;;;23.74;57.76;99966.94;1694498;83;21077;-68
2022/06/01 08:50:37;;;;;;;7.10;6.05;;;;;;;23.77;57.67;99969.13;1695205;83;21158;-68
2022/06/01 08:53:06;;;;;;;6.95;6.33;;;;;;;23.80;57.53;99963.25;1691545;83;21046;-67
2022/06/01 08:55:50;;;;;;;6.53;5.80;;;;;;;23.84;57.37;99962.22;1693650;83;21512;-67
2022/06/01 08:58:20;;;;;;;6.78;6.08;;;;;;;23.85;57.25;99955.16;1682427;83;21066;-67
2022/06/01 09:00:58;;;;;;;9.95;6.33;;;;;;;23.87;57.26;99954.92;1693221;83;21111;-66
2022/06/01 09:03:54;;;;;;;6.42;5.83;;;;;;;23.89;57.29;99951.42;1695520;84;21127;-68
2022/06/01 09:06:31;;;;;;;6.75;6.15;;;;;;;23.93;57.28;99951.20;1694779;84;21498;-68
2022/06/01 09:09:09;;;;;;;6.72;6.17;;;;;;;23.95;57.24;99950.41;1695859;83;21063;-66
2022/06/01 09:11:37;;;;;;;7.00;6.30;;;;;;;23.99;57.13;99954.29;1692132;83;21076;-66
2022/06/01 09:14:24;;;;;;;6.17;5.65;;;;;;;24.00;57.12;99945.06;1702214;83;21013;-67
2022/06/01 09:16:52;;;;;;;6.12;5.62;;;;;;;24.05;57.15;99947.84;1695033;83;21318;-67
2022/06/01 09:19:29;;;;;;;5.90;5.40;;;;;;;24.09;57.23;99934.05;1692226;83;21093;-68
2022/06/01 09:24:45;;;;;;;5.60;5.10;;;;;;;24.16;57.07;99945.25;1687285;83;21242;-69
2022/06/01 09:27:13;;;;;;;6.25;5.65;;;;;;;24.21;56.91;99940.70;1665479;84;21022;-66
2022/06/01 09:29:49;;;;;;;5.97;5.37;;;;;;;24.24;56.86;99938.86;1695195;84;21146;-69
2022/06/01 09:32:31;;;;;;;6.87;5.65;;;;;;;24.28;56.80;99942.70;1702110;83;21053;-67
2022/06/01 09:35:05;;;;;;;;;;;;;;;24.31;56.73;99933.22;1694997;83;21145;-69
2022/06/01 09:37:38;;;;;;;5.45;4.60;;;;;;;24.35;56.55;99927.55;1695495;83;20469;-77
2022/06/01 09:40:08;;;;;;;5.97;5.25;;;;;;;24.39;56.50;99926.52;1693890;83;21066;-78
2022/06/01 09:42:38;;;;;;;6.22;4.95;;;;;;;24.42;56.43;99920.05;1672125;84;21182;-74
2022/06/01 09:45:16;;;;;;;6.85;5.35;;;;;;;24.45;56.30;99915.98;1695521;84;21058;-79
2022/06/01 09:47:43;;;;;;;8.33;5.92;;;;;;;24.49;56.27;99921.19;1666193;83;21053;-72
2022/06/01 09:50:27;;;;;;;10.82;6.78;;;;;;;24.53;56.34;99912.32;1695724;84;21019;-67
2022/06/01 09:53:17;;;;;;;18.07;7.58;;;;;;;24.58;55.94;99911.54;1695881;84;21049;-61
2022/06/01 09:55:54;;;;;;;14.10;6.58;;;;;;;24.63;57.30;99908.07;1703373;83;21790;-60
2022/06/01 10:07:25;;;;;;;8.60;6.40;;;;;;;24.86;55.74;99902.81;1667945;86;21590;-65
2022/06/01 10:09:55;;;;;;;8.48;6.30;;;;;;;24.91;56.14;99908.30;1683773;83;21804;-65
2022/06/01 10:12:46;;;;;;;8.48;6.05;;;;;;;24.93;55.95;99902.87;1705272;83;21034;-64
2022/06/01 10:15:36;;;;;;;9.93;6.12;;;;;;;24.99;55.61;99909.73;1695085;83;21549;-75
2022/06/01 10:18:11;;;;;;;7.60;5.90;;;;;;;25.05;55.69;99903.25;1695333;83;21084;-73
2022/06/01 10:20:50;;;;;;;6.78;6.12;;;;;;;25.12;55.52;99902.50;1695819;84;21081;-73
2022/06/01 10:23:47;;;;;;;6.25;5.75;;;;;;;25.20;55.36;99897.92;1710435;82;21069;-66
2022/06/01 10:26:36;;;;;;;6.72;6.08;;;;;;;25.27;55.25;99894.48;1717350;83;21120;-68
2022/06/01 10:29:09;;;;;;;7.40;5.90;;;;;;;25.36;55.04;99894.80;1700709;84;21051;-68
2022/06/01 10:31:50;;;;;;;9.75;5.78;;;;;;;25.41;55.07;99889.95;1711163;83;21316;-69
2022/06/01 10:34:31;;;;;;;9.03;6.42;;;;;;;25.46;55.19;99893.52;1699310;84;21076;-72
2022/06/01 10:37:23;;;;;;;8.13;5.90;;;;;;;25.54;55.14;99885.95;1688315;84;21529;-74
2022/06/01 10:40:19;;;;;;;;;;;;;;;25.62;55.04;99892.24;1708063;83;21038;-73
2022/06/01 10:45:49;;;;;;;14.28;6.35;;;;;;;25.80;54.50;99883.61;1701521;84;21061;-77
2022/06/01 10:48:30;;;;;;;9.33;6.17;;;;;;;25.88;54.36;99885.84;1640438;85;21087;-77
2022/06/01 10:51:08;;;;;;;13.68;5.83;;;;;;;25.97;54.25;99885.36;1669356;85;21299;-79
2022/06/01 10:54:00;;;;;;;10.30;5.87;;;;;;;26.05;54.04;99881.55;1664090;85;21071;-82
2022/06/01 10:56:25;;;;;;;10.43;5.95;;;;;;;26.11;53.85;99867.97;1649189;85;21081;-76
2022/06/01 10:58:54;;;;;;;8.40;5.33;;;;;;;26.19;53.76;99875.61;1636563;87;21066;-81
2022/06/01 11:01:51;;;;;;;11.70;5.90;;;;;;;26.26;53.50;99868.02;1657259;86;21588;-75
2022/06/01 11:07:22;;;;;;;10.80;6.33;;;;;;;26.48;53.45;99863.67;1869847;76;25107;-76
2022/06/01 11:10:14;;;;;;;14.35;6.20;;;;;;;26.51;53.44;99863.15;1820899;77;20920;-72
2022/06/01 11:13:12;;;;;;;12.68;6.30;;;;;;;26.59;53.22;99861.83;1815161;78;21198;-76
2022/06/01 11:15:51;;;;;;;7.47;6.03;;;;;;;26.63;53.00;99860.19;1819926;78;21482;-74
2022/06/01 11:18:49;;;;;;;9.13;6.20;;;;;;;26.68;52.77;99858.28;1819908;78;21013;-75
2022/06/01 11:21:40;;;;;;;16.12;7.35;;;;;;;26.73;52.62;99849.28;1819170;78;20949;-76
2022/06/01 11:24:27;;;;;;;14.05;7.28;;;;;;;26.78;52.50;99845.20;1817829;77;21004;-70
2022/06/01 11:27:13;;;;;;;11.83;6.72;;;;;;;26.86;52.49;99842.48;1819018;78;21279;-71
2022/06/01 11:29:51;;;;;;;17.82;7.67;;;;;;;26.92;52.39;99844.09;1814765;78;20981;-68
2022/06/01 11:32:23;;;;;;;16.27;6.78;;;;;;;26.98;52.16;99843.00;1815867;78;21065;-71
2022/06/01 11:35:19;;;;;;;14.83;7.12;;;;;;;27.05;52.02;99845.45;1817527;77;20991;-69
2022/06/01 11:38:16;;;;;;;13.05;6.97;;;;;;;27.09;51.74;99847.09;1813386;78;21486;-69
2022/06/01 11:41:09;;;;;;;11.35;6.55;;;;;;;27.14;51.64;99841.61;1826879;77;21510;-67
2022/06/01 11:43:44;;;;;;;13.20;6.83;;;;;;;27.17;51.49;99842.44;1829214;77;21501;-70
2022/06/01 11:46:15;;;;;;;8.25;6.20;;;;;;;27.16;51.32;99844.35;1813234;77;21013;-70
2022/06/01 11:48:50;;;;;;;9.63;5.75;;;;;;;27.19;51.31;99839.70;1817190;77;21037;-68
2022/06/01 11:51:21;;;;;;;8.68;6.20;;;;;;;27.24;51.17;99839.73;1823781;77;21039;-69
2022/06/01 11:54:14;;;;;;;7.87;5.67;;;;;;;27.28;51.22;99844.08;1814335;77;21139;-68
2022/06/01 11:57:15;;;;;;;10.68;5.80;;;;;;;27.33;51.17;99839.16;1821600;77;21032;-71
2022/06/01 12:00:08;;;;;;;7.92;5.42;;;;;;;27.36;51.04;99842.14;1822118;77;21003;-67
2022/06/01 12:02:40;;;;;;;8.75;5.62;;;;;;;27.43;50.92;99836.41;1821891;77;21029;-67
2022/06/01 12:05:12;;;;;;;10.30;5.62;;;;;;;27.51;50.71;99830.94;1834421;77;21035;-69
2022/06/01 12:08:02;;;;;;;7.50;5.28;;;;;;;27.59;50.56;99822.97;1838257;77;21535;-65
2022/06/01 12:10:32;;;;;;;6.87;4.75;;;;;;;27.69;50.29;99830.30;1799944;77;20989;-66
2022/06/01 12:13:04;;;;;;;6.03;5.37;;;;;;;27.76;49.76;99835.47;1847174;77;21045;-66
2022/06/01 12:15:45;;;;;;;14.38;7.40;;;;;;;27.82;49.90;99828.88;1830332;78;21075;-66
2022/06/01 12:18:21;;;;;;;14.30;8.30;;;;;;;27.88;49.34;99826.95;1805734;77;21119;-66
2022/06/01 12:20:54;;;;;;;14.73;8.15;;;;;;;27.91;48.37;99814.95;1822332;77;22702;-70
2022/06/01 12:29:08;;;;;;;6.78;6.10;;;;;;;28.06;48.15;99818.13;1763088;78;21024;-70
2022/06/01 12:31:38;;;;;;;7.72;6.45;;;;;;;28.04;48.40;99814.30;1809320;77;21024;-68